Time;durP1;ratioP1;P1;durP2;ratioP2;P2;SDS_P1;SDS_P2;PMS_P1;PMS_P2;Temp;Humidity;BMP_temperature;BMP_pressure;BME280_temperature;BME280_humidity;BME280_pressure;Samples;Min_cycle;Max_cycle;Signal;HPM_P1;HPM_P2
2024/03/07 00:01:35;;;;;;;21.08;12.40;;;;;;;7.73;100.00;99877.53;5098279;28;20103;-63
2024/03/07 00:04:01;;;;;;;29.70;13.73;;;;;;;7.79;100.00;99866.41;5097321;28;20043;-62
2024/03/07 00:06:26;;;;;;;26.38;11.88;;;;;;;7.83;100.00;99867.78;5097958;28;20048;-65
2024/03/07 00:08:52;;;;;;;25.38;12.68;;;;;;;7.79;100.00;99869.06;5097991;28;20387;-65
2024/03/07 00:11:17;;;;;;;23.38;10.65;;;;;;;7.59;100.00;99863.81;5098220;28;20044;-63
2024/03/07 00:13:43;;;;;;;23.42;12.65;;;;;;;7.65;100.00;99846.59;5098231;28;20346;-62
2024/03/07 00:16:10;;;;;;;22.90;12.70;;;;;;;7.66;100.00;99845.63;5097575;28;20044;-63
2024/03/07 00:18:36;;;;;;;23.02;11.40;;;;;;;7.68;100.00;99856.84;5098281;28;20326;-62
2024/03/07 00:21:03;;;;;;;25.52;11.77;;;;;;;7.59;100.00;99850.63;5097437;28;20038;-64
2024/03/07 00:23:28;;;;;;;23.27;12.30;;;;;;;7.56;100.00;99858.81;5099282;28;20089;-64
2024/03/07 00:25:54;;;;;;;24.00;12.13;;;;;;;7.58;100.00;99859.50;5089595;28;20349;-62
2024/03/07 00:28:19;;;;;;;25.67;10.55;;;;;;;7.50;100.00;99855.91;5098386;28;20082;-62
2024/03/07 00:30:45;;;;;;;26.35;11.10;;;;;;;7.68;100.00;99857.69;5094725;28;20044;-62
2024/03/07 00:33:13;;;;;;;22.17;11.60;;;;;;;7.56;100.00;99863.25;5097372;28;20039;-62
2024/03/07 00:35:39;;;;;;;25.65;12.55;;;;;;;7.56;100.00;99850.06;5097355;28;20032;-64
2024/03/07 00:38:04;;;;;;;25.38;12.70;;;;;;;7.66;100.00;99858.81;5097492;28;20062;-64
2024/03/07 00:40:31;;;;;;;25.42;13.82;;;;;;;7.74;100.00;99861.56;5095700;28;20065;-62
2024/03/07 00:42:58;;;;;;;27.08;12.90;;;;;;;7.74;100.00;99858.09;5097118;28;20120;-62
2024/03/07 00:45:23;;;;;;;25.98;12.43;;;;;;;7.69;100.00;99858.53;5096719;28;20036;-62
2024/03/07 00:47:48;;;;;;;23.45;11.80;;;;;;;7.65;100.00;99862.41;5096993;28;20187;-64
2024/03/07 00:50:14;;;;;;;24.50;12.18;;;;;;;7.70;100.00;99857.53;5095747;28;20043;-62
2024/03/07 00:52:40;;;;;;;26.05;12.50;;;;;;;7.72;100.00;99871.41;5095705;28;20033;-62
2024/03/07 00:55:09;;;;;;;24.65;13.23;;;;;;;7.83;100.00;99860.72;5096868;28;20058;-63
2024/03/07 00:57:35;;;;;;;22.33;11.82;;;;;;;7.92;100.00;99869.59;5095446;28;20040;-63
2024/03/07 01:00:00;;;;;;;23.95;12.23;;;;;;;7.76;100.00;99861.44;5097523;28;20036;-62
2024/03/07 01:02:26;;;;;;;22.85;11.98;;;;;;;7.67;100.00;99852.56;5094970;28;20036;-65
2024/03/07 01:04:53;;;;;;;22.77;11.15;;;;;;;7.59;100.00;99845.34;5096651;28;20039;-64
2024/03/07 01:07:19;;;;;;;22.92;12.05;;;;;;;7.52;100.00;99841.63;5096200;28;20040;-62
2024/03/07 01:09:44;;;;;;;21.83;11.02;;;;;;;7.54;100.00;99838.84;5096886;28;20073;-62
2024/03/07 01:12:12;;;;;;;24.83;12.02;;;;;;;7.51;100.00;99833.84;5095276;28;20075;-62
2024/03/07 01:14:37;;;;;;;25.40;12.95;;;;;;;7.61;100.00;99834.69;5096947;28;20030;-65
2024/03/07 01:17:03;;;;;;;24.10;12.60;;;;;;;7.54;100.00;99839.69;5096940;28;20040;-64
2024/03/07 01:19:28;;;;;;;23.02;11.90;;;;;;;7.46;100.00;99846.63;5096599;28;20089;-62
2024/03/07 01:21:54;;;;;;;22.73;11.50;;;;;;;7.52;100.00;99841.63;5097053;28;20067;-63
2024/03/07 01:24:20;;;;;;;22.90;12.10;;;;;;;7.36;100.00;99807.94;5096591;28;20271;-63
2024/03/07 01:26:46;;;;;;;22.05;11.20;;;;;;;7.51;100.00;99845.22;5097073;28;20036;-62
2024/03/07 01:29:11;;;;;;;20.42;10.30;;;;;;;7.50;100.00;99848.84;5095805;28;20043;-62
2024/03/07 01:31:37;;;;;;;25.88;11.32;;;;;;;7.52;100.00;99854.78;5096873;28;20047;-62
2024/03/07 01:34:02;;;;;;;21.35;10.82;;;;;;;7.55;100.00;99841.34;5096551;28;20081;-64
2024/03/07 01:36:28;;;;;;;25.80;11.50;;;;;;;7.53;100.00;99848.56;5097412;28;20293;-62
2024/03/07 01:38:54;;;;;;;20.13;10.90;;;;;;;7.52;100.00;99843.44;5095808;28;20107;-62
2024/03/07 01:41:20;;;;;;;23.83;10.75;;;;;;;7.44;100.00;99849.41;5098943;28;20032;-63
2024/03/07 01:43:46;;;;;;;20.45;9.93;;;;;;;7.39;100.00;99834.97;5093239;28;20059;-63
2024/03/07 01:46:12;;;;;;;20.95;10.50;;;;;;;7.40;100.00;99849.81;5101387;28;20035;-64
2024/03/07 01:48:40;;;;;;;20.08;9.32;;;;;;;7.41;100.00;99852.31;5099880;28;20097;-62
2024/03/07 01:51:06;;;;;;;22.88;11.80;;;;;;;7.31;100.00;99843.56;5099860;28;20058;-62
2024/03/07 01:53:33;;;;;;;19.73;9.50;;;;;;;7.26;100.00;99837.84;5100108;28;20036;-62
2024/03/07 01:56:00;;;;;;;20.70;9.75;;;;;;;7.25;100.00;99837.03;5100062;28;20097;-62
2024/03/07 01:58:25;;;;;;;21.13;8.23;;;;;;;7.11;100.00;99834.81;5094043;28;20036;-62
2024/03/07 02:00:51;;;;;;;19.70;11.25;;;;;;;7.32;100.00;99838.16;5100491;28;20439;-62
2024/03/07 02:03:17;;;;;;;20.33;9.82;;;;;;;7.39;100.00;99838.44;5101278;28;20252;-64
2024/03/07 02:05:43;;;;;;;21.73;10.35;;;;;;;7.36;100.00;99830.81;5100867;28;20032;-64
2024/03/07 02:08:09;;;;;;;20.38;8.82;;;;;;;7.30;100.00;99839.28;5100232;28;20055;-62
2024/03/07 02:10:34;;;;;;;17.40;9.18;;;;;;;7.21;100.00;99829.53;5099341;28;20114;-62
2024/03/07 02:13:03;;;;;;;21.60;10.73;;;;;;;7.33;100.00;99837.19;5101457;28;20032;-62
2024/03/07 02:15:28;;;;;;;25.45;11.20;;;;;;;7.38;100.00;99846.47;5098769;28;20036;-64
2024/03/07 02:17:54;;;;;;;25.75;11.35;;;;;;;7.43;100.00;99844.25;5120536;28;20202;-62
2024/03/07 02:20:20;;;;;;;21.63;9.88;;;;;;;7.43;100.00;99850.38;5102600;28;20067;-62
2024/03/07 02:22:46;;;;;;;25.52;12.13;;;;;;;7.39;100.00;99859.50;5100731;28;20036;-62
2024/03/07 02:25:12;;;;;;;22.17;11.18;;;;;;;7.61;100.00;99845.22;5099121;28;20092;-62
2024/03/07 02:27:38;;;;;;;19.95;11.90;;;;;;;7.77;100.00;99856.00;5100096;28;20352;-62
2024/03/07 02:30:08;;;;;;;24.95;12.10;;;;;;;7.75;100.00;99857.97;5099422;28;20088;-64
2024/03/07 02:32:34;;;;;;;19.70;11.25;;;;;;;7.62;100.00;99860.88;5100277;28;20182;-64
2024/03/07 02:34:59;;;;;;;22.48;11.40;;;;;;;7.54;100.00;99860.75;5099363;28;20310;-62
2024/03/07 02:37:25;;;;;;;19.75;9.88;;;;;;;7.52;100.00;99857.44;5098777;28;20371;-63
2024/03/07 02:39:50;;;;;;;21.73;10.00;;;;;;;7.34;100.00;99859.94;5098275;28;20032;-62
2024/03/07 02:42:16;;;;;;;22.67;10.70;;;;;;;7.31;100.00;99856.75;5098563;28;20036;-64
2024/03/07 02:44:41;;;;;;;24.00;11.57;;;;;;;7.33;100.00;99860.91;5100313;28;20044;-64
2024/03/07 02:47:07;;;;;;;19.88;10.48;;;;;;;7.20;100.00;99849.78;5099716;28;20044;-63
2024/03/07 02:49:33;;;;;;;23.00;11.13;;;;;;;7.45;100.00;99851.06;5100829;28;20036;-62
2024/03/07 02:51:58;;;;;;;16.27;9.48;;;;;;;7.51;100.00;99849.66;5097819;28;20044;-62
2024/03/07 02:54:24;;;;;;;20.60;9.98;;;;;;;7.51;100.00;99852.31;5100292;28;20110;-64
2024/03/07 02:56:49;;;;;;;21.10;10.98;;;;;;;7.41;100.00;99838.31;5097769;28;20039;-64
2024/03/07 02:59:16;;;;;;;21.33;9.43;;;;;;;7.34;100.00;99846.75;5100424;28;20034;-62
2024/03/07 03:01:42;;;;;;;18.35;10.85;;;;;;;7.31;100.00;99831.22;5093944;28;20036;-62
2024/03/07 03:04:07;;;;;;;22.65;9.73;;;;;;;7.42;100.00;99848.69;5095939;28;20105;-62
2024/03/07 03:06:32;;;;;;;16.35;9.68;;;;;;;7.44;100.00;99841.50;5097703;28;20044;-62
2024/03/07 03:08:58;;;;;;;23.42;10.30;;;;;;;7.38;100.00;99823.59;5097878;28;20051;-61
2024/03/07 03:11:25;;;;;;;21.00;10.68;;;;;;;7.49;100.00;99831.38;5098294;28;20104;-62
2024/03/07 03:13:51;;;;;;;22.48;11.13;;;;;;;7.50;100.00;99846.19;5099244;28;20028;-64
2024/03/07 03:16:17;;;;;;;24.25;10.80;;;;;;;7.61;100.00;99850.50;5098401;28;20081;-63
2024/03/07 03:18:43;;;;;;;20.35;10.48;;;;;;;7.62;100.00;99852.97;5100033;28;20373;-62
2024/03/07 03:21:08;;;;;;;22.63;10.63;;;;;;;7.65;100.00;99849.22;5098648;28;20093;-62
2024/03/07 03:23:34;;;;;;;22.73;9.45;;;;;;;7.54;100.00;99838.84;5100212;28;20354;-62
2024/03/07 03:26:00;;;;;;;13.68;7.28;;;;;;;7.42;100.00;99855.78;5095235;28;20215;-65
2024/03/07 03:28:25;;;;;;;22.17;10.05;;;;;;;7.50;100.00;99848.84;5098967;28;20025;-64
2024/03/07 03:30:51;;;;;;;20.02;10.55;;;;;;;7.53;100.00;99845.91;5097800;28;20048;-62
2024/03/07 03:33:17;;;;;;;19.80;10.18;;;;;;;7.43;100.00;99853.00;5098713;28;20059;-62
2024/03/07 03:35:43;;;;;;;17.08;8.85;;;;;;;7.40;100.00;99845.38;5098733;28;20361;-62
2024/03/07 03:38:09;;;;;;;17.38;9.80;;;;;;;7.41;100.00;99836.50;5099221;28;20047;-62
2024/03/07 03:40:35;;;;;;;18.60;9.27;;;;;;;7.34;100.00;99845.94;5098583;28;20048;-62
2024/03/07 03:43:00;;;;;;;23.98;10.13;;;;;;;7.52;100.00;99843.44;5098688;28;20035;-62
2024/03/07 03:45:26;;;;;;;20.58;9.43;;;;;;;7.34;100.00;99846.75;5098776;28;20094;-63
2024/03/07 03:47:53;;;;;;;19.08;9.75;;;;;;;7.38;100.00;99849.94;5098224;28;20055;-64
2024/03/07 03:50:19;;;;;;;20.15;10.20;;;;;;;7.28;100.00;99835.91;5098803;28;20079;-62
2024/03/07 03:52:44;;;;;;;20.05;9.73;;;;;;;7.31;100.00;99840.94;5096046;28;20059;-62
2024/03/07 03:55:14;;;;;;;18.77;10.30;;;;;;;7.43;100.00;99846.91;5098640;28;20110;-62
2024/03/07 03:57:41;;;;;;;19.55;10.98;;;;;;;7.41;100.00;99852.31;5096475;28;20039;-65
2024/03/07 04:00:14;;;;;;;16.30;8.95;;;;;;;7.29;100.00;99843.72;5098724;28;20036;-64
2024/03/07 04:02:44;;;;;;;17.70;10.93;;;;;;;7.25;100.00;99854.63;5096378;28;20047;-62
2024/03/07 04:05:11;;;;;;;24.90;11.65;;;;;;;7.25;100.00;99849.38;5097011;28;20237;-62
2024/03/07 04:07:37;;;;;;;23.90;10.88;;;;;;;7.41;100.00;99852.31;5098115;28;20131;-62
2024/03/07 04:10:06;;;;;;;23.50;11.52;;;;;;;7.34;100.00;99856.47;5098409;28;20333;-63
2024/03/07 04:12:41;;;;;;;22.58;10.40;;;;;;;7.39;100.00;99854.25;5091977;28;20032;-62
2024/03/07 04:15:08;;;;;;;23.63;11.05;;;;;;;7.54;100.00;99852.03;5098200;28;20336;-64
2024/03/07 04:17:34;;;;;;;23.45;11.25;;;;;;;7.41;100.00;99848.84;5096463;28;20055;-62
2024/03/07 04:20:02;;;;;;;21.67;11.60;;;;;;;7.34;100.00;99852.03;5098441;28;20070;-62
2024/03/07 04:22:27;;;;;;;25.35;11.05;;;;;;;7.28;100.00;99857.00;5098134;28;20040;-62
2024/03/07 04:24:56;;;;;;;25.02;11.40;;;;;;;7.32;100.00;99850.50;5097910;28;20043;-62
2024/03/07 04:27:26;;;;;;;23.40;11.95;;;;;;;7.38;100.00;99855.22;5097698;28;20028;-64
2024/03/07 04:29:51;;;;;;;24.13;11.77;;;;;;;7.29;100.00;99841.06;5098024;28;20036;-62
2024/03/07 04:32:17;;;;;;;23.10;11.93;;;;;;;7.39;100.00;99851.63;5095903;28;20165;-62
2024/03/07 04:34:45;;;;;;;18.98;10.45;;;;;;;7.27;100.00;99852.69;5090182;28;20059;-62
2024/03/07 04:37:11;;;;;;;22.60;10.80;;;;;;;7.32;100.00;99855.78;5098002;28;20306;-62
2024/03/07 04:39:41;;;;;;;21.25;10.23;;;;;;;7.29;100.00;99853.41;5096983;28;20051;-64
2024/03/07 04:42:08;;;;;;;24.45;11.75;;;;;;;7.25;100.00;99855.47;5098491;28;20066;-64
2024/03/07 04:44:39;;;;;;;21.73;11.35;;;;;;;7.24;100.00;99852.97;5096863;28;20040;-63
2024/03/07 04:47:05;;;;;;;24.77;11.18;;;;;;;7.08;100.00;99858.78;5097037;28;20287;-64
2024/03/07 04:49:32;;;;;;;24.02;11.75;;;;;;;7.13;100.00;99863.63;5097320;28;20035;-64
2024/03/07 04:51:59;;;;;;;25.83;12.80;;;;;;;7.21;100.00;99853.25;5098434;28;20101;-63
2024/03/07 04:54:26;;;;;;;21.63;11.00;;;;;;;7.21;100.00;99856.72;5096148;28;20048;-63
2024/03/07 04:56:52;;;;;;;22.40;12.52;;;;;;;7.18;100.00;99859.63;5097905;28;20281;-65
2024/03/07 04:59:19;;;;;;;19.88;10.85;;;;;;;7.19;100.00;99866.53;5098196;28;20020;-64
2024/03/07 05:01:46;;;;;;;19.15;10.20;;;;;;;7.22;100.00;99860.16;5087982;28;20036;-63
2024/03/07 05:04:16;;;;;;;24.17;10.52;;;;;;;7.11;100.00;99866.41;5098150;28;20080;-63
2024/03/07 05:06:43;;;;;;;16.90;8.75;;;;;;;7.02;100.00;99875.13;5097348;28;20351;-65
2024/03/07 05:09:09;;;;;;;23.40;12.23;;;;;;;7.14;100.00;99871.41;5097948;28;20047;-65
2024/03/07 05:11:36;;;;;;;21.42;11.18;;;;;;;7.23;100.00;99869.75;5089358;28;20071;-63
2024/03/07 05:14:02;;;;;;;19.98;10.25;;;;;;;7.08;100.00;99877.22;5094720;28;20211;-63
2024/03/07 05:16:29;;;;;;;19.02;10.63;;;;;;;7.11;100.00;99868.19;5096963;28;20082;-63
2024/03/07 05:18:59;;;;;;;19.70;9.90;;;;;;;7.07;100.00;99864.19;5098418;28;20095;-65
2024/03/07 05:21:38;;;;;;;20.88;9.93;;;;;;;7.00;100.00;99870.00;5097136;28;20051;-65
2024/03/07 05:24:05;;;;;;;21.80;10.95;;;;;;;7.08;100.00;99865.84;5096692;28;20310;-63
2024/03/07 05:26:42;;;;;;;18.92;10.18;;;;;;;7.01;100.00;99869.03;5097182;28;20047;-64
2024/03/07 05:29:09;;;;;;;21.02;10.40;;;;;;;7.16;100.00;99872.09;5097102;28;20058;-63
2024/03/07 05:31:37;;;;;;;22.60;10.50;;;;;;;7.29;100.00;99870.06;5097135;28;20066;-65
2024/03/07 05:34:04;;;;;;;19.52;9.15;;;;;;;7.23;100.00;99872.38;5094525;28;20036;-65
2024/03/07 05:36:32;;;;;;;19.80;10.00;;;;;;;7.25;100.00;99868.63;5097734;28;20062;-64
2024/03/07 05:38:59;;;;;;;20.95;11.85;;;;;;;7.20;100.00;99873.47;5088969;28;20035;-64
2024/03/07 05:41:26;;;;;;;19.23;10.70;;;;;;;7.10;100.00;99877.91;5098026;28;20032;-63
2024/03/07 05:43:54;;;;;;;18.58;9.95;;;;;;;7.06;100.00;99876.50;5096180;28;20064;-65
2024/03/07 05:46:20;;;;;;;21.38;10.27;;;;;;;7.26;100.00;99880.84;5097627;28;20028;-66
2024/03/07 05:48:49;;;;;;;24.00;10.05;;;;;;;7.45;100.00;99879.19;5096362;28;20812;-64
2024/03/07 05:51:15;;;;;;;20.02;10.10;;;;;;;7.27;100.00;99876.41;5096647;28;20123;-63
2024/03/07 05:53:41;;;;;;;20.77;10.70;;;;;;;7.22;100.00;99875.97;5095057;28;20043;-64
2024/03/07 05:56:07;;;;;;;20.58;10.32;;;;;;;7.22;100.00;99886.50;5095980;28;20043;-63
2024/03/07 05:58:33;;;;;;;21.48;10.00;;;;;;;7.29;100.00;99900.81;5096482;28;20036;-64
2024/03/07 06:00:58;;;;;;;21.42;10.50;;;;;;;7.33;100.00;99897.78;5096164;28;20044;-65
2024/03/07 06:03:25;;;;;;;20.92;10.27;;;;;;;7.41;100.00;99901.53;5096015;28;20043;-65
2024/03/07 06:05:51;;;;;;;24.30;10.65;;;;;;;7.41;100.00;99906.78;5095904;28;20039;-63
2024/03/07 06:08:18;;;;;;;22.92;11.30;;;;;;;7.54;100.00;99915.25;5096339;28;20048;-63
2024/03/07 06:10:48;;;;;;;22.45;11.07;;;;;;;7.67;100.00;99915.81;5095492;28;20048;-64
2024/03/07 06:13:15;;;;;;;18.27;9.98;;;;;;;7.84;100.00;99927.47;5096955;28;20365;-65
2024/03/07 06:15:44;;;;;;;16.85;9.88;;;;;;;7.72;100.00;99926.78;5094913;28;20103;-66
2024/03/07 06:18:10;;;;;;;19.50;9.93;;;;;;;7.71;100.00;99924.28;5096590;28;20284;-64
2024/03/07 06:20:37;;;;;;;20.75;10.68;;;;;;;7.60;100.00;99933.97;5095066;28;20304;-63
2024/03/07 06:23:05;;;;;;;19.75;10.48;;;;;;;7.65;100.00;99930.94;5096551;28;20255;-63
2024/03/07 06:25:46;;;;;;;20.58;10.43;;;;;;;7.42;100.00;99926.91;5094864;28;20044;-63
2024/03/07 06:28:11;;;;;;;23.95;10.70;;;;;;;7.71;100.00;99932.19;5098018;28;20051;-65
2024/03/07 06:30:45;;;;;;;22.73;11.00;;;;;;;7.83;100.00;99934.53;5096850;28;20115;-64
2024/03/07 06:33:11;;;;;;;23.10;11.27;;;;;;;7.76;100.00;99928.16;5096654;28;20039;-63
2024/03/07 06:35:38;;;;;;;21.98;11.00;;;;;;;7.77;100.00;99934.25;5098727;28;20044;-63
2024/03/07 06:38:05;;;;;;;21.55;12.07;;;;;;;7.65;100.00;99926.50;5098549;28;20285;-64
2024/03/07 06:40:32;;;;;;;21.63;10.80;;;;;;;7.58;100.00;99928.03;5098346;28;20054;-63
2024/03/07 06:42:59;;;;;;;26.00;11.82;;;;;;;7.50;100.00;99925.25;5097231;28;20028;-64
2024/03/07 06:45:24;;;;;;;22.00;10.80;;;;;;;7.40;100.00;99921.78;5099062;28;20822;-63
2024/03/07 06:47:52;;;;;;;21.52;10.45;;;;;;;7.36;100.00;99923.00;5098448;28;20036;-64
2024/03/07 06:50:19;;;;;;;20.60;10.82;;;;;;;7.34;100.00;99924.94;5097907;28;20039;-65
2024/03/07 06:52:48;;;;;;;23.13;11.35;;;;;;;7.32;100.00;99919.81;5098491;28;20036;-63
2024/03/07 06:55:18;;;;;;;22.80;11.43;;;;;;;7.38;100.00;99920.25;5097695;28;20035;-63
2024/03/07 06:57:45;;;;;;;20.40;12.02;;;;;;;7.40;100.00;99928.84;5098705;28;20057;-63
2024/03/07 07:00:11;;;;;;;19.23;9.68;;;;;;;7.41;100.00;99933.13;5098299;28;20035;-63
2024/03/07 07:02:40;;;;;;;24.25;11.48;;;;;;;7.47;100.00;99933.41;5097888;28;20074;-65
2024/03/07 07:05:10;;;;;;;20.33;10.38;;;;;;;7.42;100.00;99930.38;5097783;28;20031;-64
2024/03/07 07:07:41;;;;;;;18.13;10.02;;;;;;;7.55;100.00;99935.38;5097283;28;20067;-63
2024/03/07 07:10:09;;;;;;;21.17;10.15;;;;;;;7.63;100.00;99933.72;5097595;28;20036;-63
2024/03/07 07:12:36;;;;;;;20.65;10.30;;;;;;;7.84;100.00;99936.19;5098009;28;20043;-63
2024/03/07 07:15:03;;;;;;;20.30;10.25;;;;;;;7.78;100.00;99930.66;5097426;28;20036;-63
2024/03/07 07:17:29;;;;;;;19.73;9.68;;;;;;;7.67;100.00;99939.53;5098975;28;20093;-64
2024/03/07 07:19:58;;;;;;;21.30;10.10;;;;;;;7.64;100.00;99926.63;5096028;28;20390;-63
2024/03/07 07:22:25;;;;;;;20.80;10.15;;;;;;;7.71;100.00;99934.81;5097802;28;20321;-64
2024/03/07 07:24:51;;;;;;;22.98;10.40;;;;;;;7.91;100.00;99942.56;5096714;28;20039;-66
2024/03/07 07:27:16;;;;;;;20.33;10.93;;;;;;;7.76;100.00;99941.34;5098009;28;20047;-64
2024/03/07 07:29:43;;;;;;;22.60;10.55;;;;;;;7.80;100.00;99936.63;5097512;28;20040;-63
2024/03/07 07:32:12;;;;;;;21.67;10.02;;;;;;;7.75;100.00;99937.03;5097920;28;20077;-63
2024/03/07 07:34:38;;;;;;;26.08;11.48;;;;;;;7.83;100.00;99946.88;5096555;28;20087;-65
2024/03/07 07:37:04;;;;;;;18.38;10.68;;;;;;;7.73;100.00;99943.41;5097087;28;20394;-65
2024/03/07 07:39:29;;;;;;;18.83;9.52;;;;;;;7.81;100.00;99944.38;5096900;28;20312;-63
2024/03/07 07:41:55;;;;;;;23.05;11.02;;;;;;;7.74;100.00;99953.00;5097182;28;20217;-64
2024/03/07 07:44:21;;;;;;;20.50;10.15;;;;;;;7.61;100.00;99945.34;5097343;28;20034;-63
2024/03/07 07:46:49;;;;;;;22.83;9.85;;;;;;;7.62;100.00;99944.38;5097171;28;20040;-63
2024/03/07 07:49:15;;;;;;;24.30;12.48;;;;;;;7.75;100.00;99955.50;5097316;28;20032;-64
2024/03/07 07:51:41;;;;;;;22.50;10.57;;;;;;;7.84;100.00;99964.38;5096903;28;20376;-63
2024/03/07 07:54:09;;;;;;;23.50;11.27;;;;;;;7.86;100.00;99967.69;5096956;28;20063;-63
2024/03/07 07:56:35;;;;;;;19.30;10.32;;;;;;;7.92;100.00;99967.97;5095780;28;20109;-65
2024/03/07 07:59:03;;;;;;;24.58;12.57;;;;;;;7.80;100.00;99968.25;5098253;28;20094;-63
2024/03/07 08:01:28;;;;;;;20.13;10.43;;;;;;;7.77;100.00;99964.09;5094679;28;20211;-63
2024/03/07 08:03:54;;;;;;;19.98;10.00;;;;;;;7.86;100.00;99965.88;5097152;28;20111;-64
2024/03/07 08:06:20;;;;;;;23.38;10.73;;;;;;;7.95;100.00;99964.22;5095474;28;20220;-65
2024/03/07 08:08:46;;;;;;;23.23;11.50;;;;;;;7.74;100.00;99964.38;5095626;28;20051;-65
2024/03/07 08:11:13;;;;;;;20.73;10.70;;;;;;;7.80;100.00;99965.63;5094959;28;20111;-63
2024/03/07 08:13:40;;;;;;;21.65;10.82;;;;;;;7.93;100.00;99972.28;5096570;28;20031;-63
2024/03/07 08:16:06;;;;;;;23.70;10.45;;;;;;;7.77;100.00;99976.44;5095498;28;20051;-63
2024/03/07 08:18:32;;;;;;;25.30;11.93;;;;;;;7.83;100.00;99976.72;5096536;28;20057;-63
2024/03/07 08:20:57;;;;;;;26.23;12.30;;;;;;;7.67;100.00;99972.00;5096119;28;20267;-64
2024/03/07 08:23:25;;;;;;;23.33;11.38;;;;;;;7.69;100.00;99972.69;5096360;28;20378;-63
2024/03/07 08:25:50;;;;;;;28.38;12.10;;;;;;;7.99;100.00;99984.91;5095404;28;20099;-65
2024/03/07 08:28:16;;;;;;;22.70;11.85;;;;;;;7.83;100.00;99978.50;5097577;28;20043;-65
2024/03/07 08:30:41;;;;;;;25.38;11.68;;;;;;;7.78;100.00;99972.81;5096593;28;20036;-63
2024/03/07 08:33:07;;;;;;;21.88;9.57;;;;;;;7.92;100.00;99990.88;5096457;28;20336;-63
2024/03/07 08:35:33;;;;;;;29.85;13.80;;;;;;;7.77;100.00;99982.53;5096227;28;20305;-63
2024/03/07 08:37:59;;;;;;;31.75;14.48;;;;;;;7.61;100.00;99985.72;5096196;28;20032;-66
2024/03/07 08:40:32;;;;;;;30.88;15.10;;;;;;;7.70;100.00;99986.69;5096222;28;20330;-63
2024/03/07 08:42:58;;;;;;;22.98;11.93;;;;;;;7.74;100.00;99992.53;5096953;28;20065;-63
2024/03/07 08:45:25;;;;;;;45.90;20.90;;;;;;;7.68;100.00;99992.09;5096244;28;20069;-64
2024/03/07 08:47:54;;;;;;;32.95;15.38;;;;;;;7.80;100.00;99991.97;5095423;28;20050;-63
2024/03/07 08:50:20;;;;;;;27.52;13.25;;;;;;;7.90;100.00;99998.09;5114585;28;20031;-63
2024/03/07 08:52:47;;;;;;;38.35;17.45;;;;;;;7.86;100.00;100002.81;5095972;28;20040;-65
2024/03/07 08:55:19;;;;;;;30.27;13.48;;;;;;;7.93;100.00;100001.28;5096845;28;20035;-65
2024/03/07 08:57:46;;;;;;;24.83;12.88;;;;;;;7.97;100.00;100007.09;5095273;28;20030;-64
2024/03/07 09:00:22;;;;;;;27.30;13.45;;;;;;;8.20;100.00;99997.09;5096720;28;20032;-63
2024/03/07 09:02:50;;;;;;;26.92;12.43;;;;;;;8.29;100.00;100001.53;5094948;28;20058;-64
2024/03/07 09:05:16;;;;;;;27.75;14.35;;;;;;;8.22;100.00;99997.78;5096027;28;20031;-64
2024/03/07 09:07:41;;;;;;;33.42;14.32;;;;;;;8.02;100.00;99999.59;5094744;28;20086;-63
2024/03/07 09:10:07;;;;;;;29.73;14.93;;;;;;;7.86;100.00;100000.16;5096088;28;20119;-65
2024/03/07 09:12:33;;;;;;;33.38;14.38;;;;;;;7.94;100.00;100007.38;5096241;28;20032;-64
2024/03/07 09:14:58;;;;;;;32.53;14.73;;;;;;;7.88;100.00;100002.66;5096529;28;20028;-64
2024/03/07 09:17:24;;;;;;;35.78;15.38;;;;;;;7.87;100.00;100009.75;5095647;28;20032;-63
2024/03/07 09:19:49;;;;;;;39.55;19.30;;;;;;;8.05;100.00;100014.31;5095890;28;20149;-63
2024/03/07 09:22:15;;;;;;;38.22;19.08;;;;;;;7.93;100.00;100016.25;5095706;28;20032;-65
2024/03/07 09:24:41;;;;;;;34.05;16.88;;;;;;;8.17;100.00;100014.03;5095240;28;20353;-66
2024/03/07 09:27:08;;;;;;;31.35;14.38;;;;;;;8.31;100.00;100018.88;5095427;28;20028;-63
2024/03/07 09:29:33;;;;;;;35.30;15.53;;;;;;;8.24;100.00;100022.22;5095051;28;20042;-64
2024/03/07 09:31:59;;;;;;;42.40;21.58;;;;;;;8.19;100.00;100029.72;5094193;28;20460;-63
2024/03/07 09:34:25;;;;;;;43.53;20.98;;;;;;;7.94;100.00;100020.56;5094274;28;20032;-63
2024/03/07 09:36:51;;;;;;;41.80;18.13;;;;;;;7.99;100.00;100011.25;5096395;28;20043;-64
2024/03/07 09:39:18;;;;;;;44.92;20.50;;;;;;;8.12;100.00;100012.78;5094688;28;20024;-64
2024/03/07 09:41:44;;;;;;;43.45;19.40;;;;;;;8.23;100.00;100017.91;5096146;28;20119;-63
2024/03/07 09:44:13;;;;;;;37.25;17.23;;;;;;;8.20;100.00;100024.31;5095181;28;20040;-65
2024/03/07 09:46:40;;;;;;;43.13;18.70;;;;;;;8.22;100.00;100016.25;5095564;28;20043;-65
2024/03/07 09:49:08;;;;;;;48.22;21.80;;;;;;;8.28;100.00;100023.59;5094309;28;20039;-64
2024/03/07 09:51:35;;;;;;;42.13;19.17;;;;;;;8.43;100.00;100024.91;5095777;28;20078;-63
2024/03/07 09:54:01;;;;;;;41.67;18.98;;;;;;;8.44;100.00;100026.56;5095982;28;20364;-64
2024/03/07 09:56:31;;;;;;;39.10;18.80;;;;;;;8.64;100.00;100030.81;5093618;28;20207;-65
2024/03/07 09:58:59;;;;;;;40.08;17.65;;;;;;;8.88;100.00;100026.88;5095980;28;20210;-65
2024/03/07 10:01:31;;;;;;;40.00;19.48;;;;;;;8.83;100.00;100037.03;5096243;28;20040;-64
2024/03/07 10:04:01;;;;;;;39.33;19.10;;;;;;;9.05;100.00;100039.31;5098998;28;20028;-63
2024/03/07 10:06:29;;;;;;;43.83;19.45;;;;;;;9.14;100.00;100049.00;5101169;28;20040;-64
2024/03/07 10:08:55;;;;;;;36.15;18.85;;;;;;;9.17;100.00;100045.25;5099208;28;20210;-66
2024/03/07 10:11:21;;;;;;;39.45;19.23;;;;;;;9.29;100.00;100047.53;5097739;28;20040;-64
2024/03/07 10:13:49;;;;;;;38.05;19.30;;;;;;;9.37;100.00;100046.00;5098294;28;20028;-63
2024/03/07 10:16:17;;;;;;;40.78;18.52;;;;;;;9.57;100.00;100035.19;5097731;28;20032;-64
2024/03/07 10:18:43;;;;;;;41.85;18.58;;;;;;;9.59;100.00;100040.31;5099567;28;20292;-64
2024/03/07 10:21:11;;;;;;;41.22;20.35;;;;;;;9.51;100.00;100046.34;5094932;28;20314;-66
2024/03/07 10:23:36;;;;;;;45.75;21.58;;;;;;;9.39;100.00;100055.47;5097765;28;20261;-65
2024/03/07 10:26:04;;;;;;;40.47;19.98;;;;;;;9.20;100.00;100051.06;5098684;28;20035;-64
2024/03/07 10:28:31;;;;;;;42.60;20.42;;;;;;;9.25;100.00;100050.63;5098355;28;20059;-64
2024/03/07 10:30:56;;;;;;;47.30;20.10;;;;;;;9.42;100.00;100055.16;5098044;28;20325;-64
2024/03/07 10:33:27;;;;;;;42.40;19.98;;;;;;;9.58;100.00;100041.31;5097900;28;20059;-64
2024/03/07 10:35:53;;;;;;;43.33;21.20;;;;;;;9.78;100.00;100052.59;5097675;28;20036;-64
2024/03/07 10:38:18;;;;;;;41.80;20.55;;;;;;;9.78;100.00;100042.84;5098498;28;20028;-64
2024/03/07 10:40:47;;;;;;;41.17;20.98;;;;;;;9.71;100.00;100036.50;5097746;28;20099;-64
2024/03/07 10:43:14;;;;;;;43.35;20.60;;;;;;;9.59;100.00;100043.78;5098143;28;20036;-66
2024/03/07 10:45:48;;;;;;;42.72;19.95;;;;;;;9.35;100.00;100047.94;5097897;28;20036;-64
2024/03/07 10:48:17;;;;;;;36.95;19.10;;;;;;;9.26;100.00;100050.47;5097225;28;20392;-64
2024/03/07 10:50:47;;;;;;;49.63;19.92;;;;;;;9.02;100.00;100038.78;5097640;28;20047;-64
2024/03/07 10:53:43;;;;;;;39.03;18.85;;;;;;;9.20;100.00;100050.22;5096946;28;20036;-64
2024/03/07 10:56:11;;;;;;;39.97;19.40;;;;;;;8.99;100.00;100046.97;5097525;28;20040;-66
2024/03/07 10:59:02;;;;;;;44.22;19.58;;;;;;;9.08;100.00;100051.41;5098170;28;20039;-64
2024/03/07 11:01:34;;;;;;;45.05;21.67;;;;;;;8.98;100.00;100029.47;5097810;28;20142;-63
2024/03/07 11:04:00;;;;;;;44.25;19.88;;;;;;;9.24;100.00;100054.25;5097968;28;20028;-64
2024/03/07 11:06:26;;;;;;;43.03;19.25;;;;;;;9.10;100.00;100052.91;5098004;28;20058;-64
2024/03/07 11:08:53;;;;;;;42.25;21.15;;;;;;;8.83;100.00;100045.78;5097925;28;20214;-63
2024/03/07 11:11:18;;;;;;;43.08;20.58;;;;;;;8.93;100.00;100040.47;5097433;28;20050;-63
2024/03/07 11:13:46;;;;;;;42.90;19.20;;;;;;;8.76;100.00;100039.41;5096397;28;20036;-63
2024/03/07 11:16:14;;;;;;;38.08;18.60;;;;;;;8.69;100.00;100040.97;5096789;28;20523;-66